VTUU/UBP METAR and TAF weather

Enter ICAO airport designator
Station Type Date Time Source
VTUU METAR 2019/06/19 03:00 UTC NOAA

VTUU 190300Z 25009KT 9999 FEW020 30/25 Q1009 NOSIG


Station Type Date Time Source
VTUU Decoded METAR 2019/06/19 03:00 UTC NOAA

Ubon Ratchathani, Thailand (VTUU) 15-15N 104-52E 127M
Jun 18, 2019 - 11:00 PM EDT / 2019.06.19 0300 UTC
Wind: from the WSW (250 degrees) at 10 MPH (9 KT):0
Visibility: greater than 7 mile(s):0
Sky conditions: mostly clear
Temperature: 86 F (30 C)
Heat index: 96.8 F (36.0 C):1
Dew Point: 77 F (25 C)
Relative Humidity: 74%
Pressure (altimeter): 29.80 in. Hg (1009 hPa)
ob: VTUU 190300Z 25009KT 9999 FEW020 30/25 Q1009 NOSIG
cycle: 3

Station Type Date Time Source
VTUU TAF 2019/06/18 18:38 UTC NOAA

TAF VTUU 181700Z 1818/1918 22005KT 9000 FEW030
TEMPO 1908/1911 VRB15KT 5000 TSRA FEW018CB SCT025 BKN100

Example: see airport list